createdAt,value
2023-05-01T00:00:00.513Z,14.25
2023-05-01T00:01:00.464Z,14.25
2023-05-01T00:02:00.518Z,14.25
2023-05-01T00:03:00.513Z,14.25
2023-05-01T00:04:00.598Z,14.20
2023-05-01T00:05:01.225Z,14.20
2023-05-01T00:06:01.523Z,14.20
2023-05-01T00:07:00.390Z,14.20
2023-05-01T00:08:00.506Z,14.20
2023-05-01T00:09:00.372Z,14.18
2023-05-01T00:10:00.556Z,14.18
2023-05-01T00:11:02.035Z,14.18
2023-05-01T00:12:00.390Z,14.18
2023-05-01T00:13:00.393Z,14.18
2023-05-01T00:14:00.594Z,14.17
2023-05-01T00:15:00.399Z,14.17
2023-05-01T00:16:00.403Z,14.17
2023-05-01T00:17:00.395Z,14.17
2023-05-01T00:18:00.448Z,14.17
2023-05-01T00:19:00.518Z,14.13
2023-05-01T00:20:00.386Z,14.13
2023-05-01T00:21:00.514Z,14.13
2023-05-01T00:22:00.389Z,14.13
2023-05-01T00:23:00.387Z,14.13
2023-05-01T00:24:00.387Z,14.09
2023-05-01T00:25:00.387Z,14.09
2023-05-01T00:26:00.406Z,14.09
2023-05-01T00:27:00.538Z,14.09
2023-05-01T00:28:00.387Z,14.09
2023-05-01T00:29:00.380Z,14.01
2023-05-01T00:30:00.395Z,14.01
2023-05-01T00:31:00.386Z,14.01
2023-05-01T00:32:00.639Z,14.01
2023-05-01T00:33:00.659Z,14.01
2023-05-01T00:34:00.601Z,13.97
2023-05-01T00:35:00.388Z,13.97
2023-05-01T00:36:00.394Z,13.97
2023-05-01T00:37:00.392Z,13.97
2023-05-01T00:38:00.377Z,13.97
2023-05-01T00:39:00.396Z,13.87
2023-05-01T00:40:00.388Z,13.87
2023-05-01T00:41:00.376Z,13.87
2023-05-01T00:42:00.387Z,13.87
2023-05-01T00:43:00.508Z,13.87
2023-05-01T00:44:00.560Z,13.81
2023-05-01T00:45:00.552Z,13.81
2023-05-01T00:46:00.630Z,13.81
2023-05-01T00:47:00.620Z,13.81
2023-05-01T00:48:00.537Z,13.81
2023-05-01T00:49:00.575Z,13.72
2023-05-01T00:50:00.621Z,13.72
2023-05-01T00:51:00.840Z,13.72
2023-05-01T00:52:00.399Z,13.72
2023-05-01T00:53:01.063Z,13.72
2023-05-01T00:54:00.546Z,13.65
2023-05-01T00:55:00.601Z,13.65
2023-05-01T00:56:00.621Z,13.65
2023-05-01T00:57:00.616Z,13.65
2023-05-01T00:58:00.600Z,13.65
2023-05-01T00:59:00.400Z,13.58
2023-05-01T01:00:00.401Z,13.58
2023-05-01T01:01:00.961Z,13.58
2023-05-01T01:02:00.600Z,13.58
2023-05-01T01:03:00.458Z,13.58
2023-05-01T01:04:00.418Z,13.54
2023-05-01T01:05:00.505Z,13.54
2023-05-01T01:06:06.339Z,13.54
2023-05-01T01:07:06.770Z,13.54
2023-05-01T01:08:08.330Z,13.54
2023-05-01T01:09:00.373Z,13.43
2023-05-01T01:10:04.372Z,13.43
2023-05-01T01:11:07.137Z,13.43
2023-05-01T01:12:09.196Z,13.43
2023-05-01T01:13:00.375Z,13.43
2023-05-01T01:14:10.299Z,13.35
2023-05-01T01:15:10.294Z,13.35
2023-05-01T01:16:01.373Z,13.35
2023-05-01T01:17:07.270Z,13.35
2023-05-01T01:18:10.336Z,13.35
2023-05-01T01:19:05.474Z,13.26
2023-05-01T01:20:07.927Z,13.26
2023-05-01T01:21:06.129Z,13.26
2023-05-01T01:22:04.802Z,13.26
2023-05-01T01:23:10.301Z,13.26
2023-05-01T01:24:01.397Z,13.19
2023-05-01T01:25:10.298Z,13.19
2023-05-01T01:26:00.378Z,13.19
2023-05-01T01:27:10.314Z,13.19
2023-05-01T01:28:09.846Z,13.19
2023-05-01T01:29:00.383Z,13.07
2023-05-01T01:30:00.396Z,13.07
2023-05-01T01:31:09.238Z,13.07
2023-05-01T01:32:03.627Z,13.07
2023-05-01T01:33:10.336Z,13.07
2023-05-01T01:34:10.300Z,13.02
2023-05-01T01:35:01.790Z,13.02
2023-05-01T01:36:04.470Z,13.02
2023-05-01T01:37:00.374Z,13.02
2023-05-01T01:38:03.625Z,13.02
2023-05-01T01:39:07.788Z,12.97
2023-05-01T01:40:04.165Z,12.97
2023-05-01T01:41:08.829Z,12.97
2023-05-01T01:42:04.418Z,12.97
2023-05-01T01:43:03.465Z,12.97
2023-05-01T01:44:03.541Z,12.92
2023-05-01T01:45:02.800Z,12.92
2023-05-01T01:46:02.054Z,12.92
2023-05-01T01:47:03.869Z,12.92
2023-05-01T01:48:01.849Z,12.92
2023-05-01T01:49:02.171Z,12.90
2023-05-01T01:50:01.946Z,12.90
2023-05-01T01:51:05.178Z,12.90
2023-05-01T01:52:01.443Z,12.90
2023-05-01T01:53:01.176Z,12.90
2023-05-01T01:54:01.639Z,12.87
2023-05-01T01:55:04.241Z,12.87
2023-05-01T01:56:03.730Z,12.87
2023-05-01T01:57:01.066Z,12.87
2023-05-01T01:58:01.428Z,12.87
2023-05-01T01:59:00.988Z,12.82
2023-05-01T02:00:00.626Z,12.82
2023-05-01T02:01:00.759Z,12.82
2023-05-01T02:02:01.486Z,12.82
2023-05-01T02:03:01.230Z,12.82
2023-05-01T02:04:00.713Z,12.81
2023-05-01T02:05:00.596Z,12.81
2023-05-01T02:06:00.656Z,12.81
2023-05-01T02:07:01.783Z,12.81
2023-05-01T02:08:01.145Z,12.81
2023-05-01T02:09:01.792Z,12.78
2023-05-01T02:10:01.100Z,12.78
2023-05-01T02:11:02.260Z,12.78
2023-05-01T02:12:01.537Z,12.78
2023-05-01T02:13:01.483Z,12.78
2023-05-01T02:14:00.508Z,12.77
2023-05-01T02:15:00.784Z,12.77
2023-05-01T02:16:01.337Z,12.77
2023-05-01T02:17:01.238Z,12.77
2023-05-01T02:18:01.947Z,12.77
2023-05-01T02:19:01.576Z,12.74
2023-05-01T02:20:01.319Z,12.74
2023-05-01T02:21:02.323Z,12.74
2023-05-01T02:22:01.445Z,12.74
2023-05-01T02:23:02.218Z,12.74
2023-05-01T02:24:00.583Z,12.71
2023-05-01T02:25:01.667Z,12.71
2023-05-01T02:26:01.866Z,12.71
2023-05-01T02:27:03.013Z,12.71
2023-05-01T02:28:02.572Z,12.71
2023-05-01T02:29:00.504Z,12.62
2023-05-01T02:30:00.627Z,12.62
2023-05-01T02:31:00.547Z,12.62
2023-05-01T02:32:00.519Z,12.62
2023-05-01T02:33:00.576Z,12.62
2023-05-01T02:34:00.668Z,12.62
2023-05-01T02:35:00.568Z,12.62
2023-05-01T02:36:00.563Z,12.62
2023-05-01T02:37:00.749Z,12.62
2023-05-01T02:38:00.396Z,12.62
2023-05-01T02:39:00.741Z,12.55
2023-05-01T02:40:01.880Z,12.55
2023-05-01T02:41:01.899Z,12.55
2023-05-01T02:42:01.281Z,12.55
2023-05-01T02:43:03.844Z,12.55
2023-05-01T02:44:01.363Z,12.54
2023-05-01T02:45:02.077Z,12.54
2023-05-01T02:46:02.044Z,12.54
2023-05-01T02:47:01.839Z,12.54
2023-05-01T02:48:01.009Z,12.54
2023-05-01T02:49:01.569Z,12.56
2023-05-01T02:50:00.604Z,12.56
2023-05-01T02:51:01.334Z,12.56
2023-05-01T02:52:01.224Z,12.56
2023-05-01T02:53:01.169Z,12.56
2023-05-01T02:54:00.836Z,12.58
2023-05-01T02:55:00.540Z,12.58
2023-05-01T02:56:02.429Z,12.58
2023-05-01T02:57:02.520Z,12.58
2023-05-01T02:58:00.515Z,12.58
2023-05-01T02:59:00.395Z,12.64
2023-05-01T03:00:00.567Z,12.64
2023-05-01T03:01:00.451Z,12.64
2023-05-01T03:02:00.401Z,12.64
2023-05-01T03:03:00.459Z,12.64
2023-05-01T03:04:00.436Z,12.68
2023-05-01T03:05:00.408Z,12.68
2023-05-01T03:06:00.420Z,12.68
2023-05-01T03:07:00.566Z,12.68
2023-05-01T03:08:00.389Z,12.68
2023-05-01T03:09:00.390Z,12.68
2023-05-01T03:10:02.075Z,12.68
2023-05-01T03:11:03.353Z,12.68
2023-05-01T03:12:00.390Z,12.68
2023-05-01T03:13:00.679Z,12.68
2023-05-01T03:14:00.397Z,12.72
2023-05-01T03:15:00.376Z,12.72
2023-05-01T03:16:00.705Z,12.72
2023-05-01T03:17:00.397Z,12.72
2023-05-01T03:18:00.544Z,12.72
2023-05-01T03:19:00.398Z,12.71
2023-05-01T03:20:00.399Z,12.71
2023-05-01T03:21:00.405Z,12.71
2023-05-01T03:22:00.398Z,12.71
2023-05-01T03:23:00.398Z,12.71
2023-05-01T03:24:00.402Z,12.69
2023-05-01T03:25:00.646Z,12.69
2023-05-01T03:26:00.397Z,12.69
2023-05-01T03:27:00.392Z,12.69
2023-05-01T03:28:00.395Z,12.69
2023-05-01T03:29:00.399Z,12.73
2023-05-01T03:30:00.384Z,12.73
2023-05-01T03:31:00.508Z,12.73
2023-05-01T03:32:00.551Z,12.73
2023-05-01T03:33:00.541Z,12.73
2023-05-01T03:34:00.557Z,12.72
2023-05-01T03:35:00.541Z,12.72
2023-05-01T03:36:01.556Z,12.72
2023-05-01T03:37:00.390Z,12.72
2023-05-01T03:38:00.400Z,12.72
2023-05-01T03:39:00.393Z,12.71
2023-05-01T03:40:00.703Z,12.71
2023-05-01T03:41:00.391Z,12.71
2023-05-01T03:42:00.523Z,12.71
2023-05-01T03:43:00.399Z,12.71
2023-05-01T03:44:00.385Z,12.62
2023-05-01T03:45:00.381Z,12.62
2023-05-01T03:46:00.533Z,12.62
2023-05-01T03:47:00.397Z,12.62
2023-05-01T03:48:00.425Z,12.62
2023-05-01T03:49:00.514Z,12.62
2023-05-01T03:50:00.392Z,12.62
2023-05-01T03:51:00.521Z,12.62
2023-05-01T03:52:00.507Z,12.62
2023-05-01T03:53:00.395Z,12.62
2023-05-01T03:54:00.401Z,12.58
2023-05-01T03:55:00.510Z,12.58
2023-05-01T03:56:00.398Z,12.58
2023-05-01T03:57:00.505Z,12.58
2023-05-01T03:58:00.396Z,12.58
2023-05-01T03:59:00.555Z,12.54
2023-05-01T04:00:00.526Z,12.54
2023-05-01T04:01:00.397Z,12.54
2023-05-01T04:02:00.455Z,12.54
2023-05-01T04:03:00.692Z,12.54
2023-05-01T04:04:00.680Z,12.49
2023-05-01T04:05:00.401Z,12.49
2023-05-01T04:06:00.537Z,12.49
2023-05-01T04:07:00.549Z,12.49
2023-05-01T04:08:00.553Z,12.49
2023-05-01T04:09:00.394Z,12.45
2023-05-01T04:10:00.400Z,12.45
2023-05-01T04:11:00.577Z,12.45
2023-05-01T04:12:00.508Z,12.45
2023-05-01T04:13:00.400Z,12.45
2023-05-01T04:14:00.404Z,12.41
2023-05-01T04:15:00.527Z,12.41
2023-05-01T04:16:00.421Z,12.41
2023-05-01T04:17:00.676Z,12.41
2023-05-01T04:18:00.638Z,12.41
2023-05-01T04:19:00.512Z,12.38
2023-05-01T04:20:00.526Z,12.38
2023-05-01T04:21:00.511Z,12.38
2023-05-01T04:22:00.502Z,12.38
2023-05-01T04:23:00.403Z,12.38
2023-05-01T04:24:00.406Z,12.34
2023-05-01T04:25:00.397Z,12.34
2023-05-01T04:26:00.401Z,12.34
2023-05-01T04:27:00.390Z,12.34
2023-05-01T04:28:00.386Z,12.34
2023-05-01T04:29:00.400Z,12.31
2023-05-01T04:30:00.813Z,12.31
2023-05-01T04:31:00.670Z,12.31
2023-05-01T04:32:00.540Z,12.31
2023-05-01T04:33:00.424Z,12.31
2023-05-01T04:34:00.599Z,12.30
2023-05-01T04:35:00.395Z,12.30
2023-05-01T04:36:00.402Z,12.30
2023-05-01T04:37:00.509Z,12.30
2023-05-01T04:38:00.388Z,12.30
2023-05-01T04:39:00.390Z,12.28
2023-05-01T04:40:00.399Z,12.28
2023-05-01T04:41:00.400Z,12.28
2023-05-01T04:42:00.680Z,12.28
2023-05-01T04:43:00.511Z,12.28
2023-05-01T04:44:00.377Z,12.22
2023-05-01T04:45:00.598Z,12.22
2023-05-01T04:46:01.926Z,12.22
2023-05-01T04:47:00.943Z,12.22
2023-05-01T04:48:00.564Z,12.22
2023-05-01T04:49:00.399Z,12.22
2023-05-01T04:50:00.623Z,12.22
2023-05-01T04:51:00.400Z,12.22
2023-05-01T04:52:00.386Z,12.22
2023-05-01T04:53:00.377Z,12.22
2023-05-01T04:54:00.677Z,12.17
2023-05-01T04:55:00.561Z,12.17
2023-05-01T04:56:00.516Z,12.17
2023-05-01T04:57:00.510Z,12.17
2023-05-01T04:58:00.389Z,12.17
2023-05-01T04:59:00.689Z,12.17
2023-05-01T05:00:00.650Z,12.17
2023-05-01T05:01:00.413Z,12.17
2023-05-01T05:02:00.437Z,12.17
2023-05-01T05:03:00.551Z,12.17
2023-05-01T05:04:00.849Z,12.22
2023-05-01T05:05:00.528Z,12.22
2023-05-01T05:06:00.452Z,12.22
2023-05-01T05:07:00.626Z,12.22
2023-05-01T05:08:00.405Z,12.22
2023-05-01T05:09:00.390Z,12.25
2023-05-01T05:10:00.514Z,12.25
2023-05-01T05:11:00.662Z,12.25
2023-05-01T05:12:00.505Z,12.25
2023-05-01T05:13:00.401Z,12.25
2023-05-01T05:14:00.399Z,12.29
2023-05-01T05:15:00.540Z,12.29
2023-05-01T05:16:00.589Z,12.29
2023-05-01T05:17:00.576Z,12.29
2023-05-01T05:18:00.566Z,12.29
2023-05-01T05:19:00.543Z,12.31
2023-05-01T05:20:00.398Z,12.31
2023-05-01T05:21:03.912Z,12.31
2023-05-01T05:22:02.009Z,12.31
2023-05-01T05:23:00.400Z,12.31
2023-05-01T05:24:00.504Z,12.33
2023-05-01T05:25:00.510Z,12.33
2023-05-01T05:26:00.586Z,12.33
2023-05-01T05:27:00.549Z,12.33
2023-05-01T05:28:00.393Z,12.33
2023-05-01T05:29:00.510Z,12.40
2023-05-01T05:30:00.551Z,12.40
2023-05-01T05:31:00.374Z,12.40
2023-05-01T05:32:00.640Z,12.40
2023-05-01T05:33:00.484Z,12.40
2023-05-01T05:34:00.502Z,12.45
2023-05-01T05:35:00.390Z,12.45
2023-05-01T05:36:00.391Z,12.45
2023-05-01T05:37:00.390Z,12.45
2023-05-01T05:38:00.415Z,12.45
2023-05-01T05:39:00.395Z,12.50
2023-05-01T05:40:00.505Z,12.50
2023-05-01T05:41:00.550Z,12.50
2023-05-01T05:42:00.570Z,12.50
2023-05-01T05:43:00.392Z,12.50
2023-05-01T05:44:00.384Z,12.52
2023-05-01T05:45:00.544Z,12.52
2023-05-01T05:46:00.672Z,12.52
2023-05-01T05:47:00.375Z,12.52
2023-05-01T05:48:00.554Z,12.52
2023-05-01T05:49:00.590Z,12.55
2023-05-01T05:50:00.385Z,12.55
2023-05-01T05:51:00.524Z,12.55
2023-05-01T05:52:00.519Z,12.55
2023-05-01T05:53:00.380Z,12.55
2023-05-01T05:54:00.395Z,12.51
2023-05-01T05:55:00.384Z,12.51
2023-05-01T05:56:00.512Z,12.51
2023-05-01T05:57:00.389Z,12.51
2023-05-01T05:58:00.521Z,12.51
2023-05-01T05:59:00.387Z,12.56
2023-05-01T06:00:00.433Z,12.56
2023-05-01T06:01:00.604Z,12.56
2023-05-01T06:02:00.452Z,12.56
2023-05-01T06:03:00.540Z,12.56
2023-05-01T06:04:00.401Z,12.57
2023-05-01T06:05:00.422Z,12.57
2023-05-01T06:06:00.799Z,12.57
2023-05-01T06:07:00.682Z,12.57
2023-05-01T06:08:00.395Z,12.57
2023-05-01T06:09:00.391Z,12.60
2023-05-01T06:10:00.585Z,12.60
2023-05-01T06:11:00.395Z,12.60
2023-05-01T06:12:00.410Z,12.60
2023-05-01T06:13:13.261Z,12.60
2023-05-01T06:14:00.404Z,12.64
2023-05-01T06:15:00.383Z,12.64
2023-05-01T06:16:00.596Z,12.64
2023-05-01T06:17:00.398Z,12.64
2023-05-01T06:18:00.567Z,12.64
2023-05-01T06:19:00.559Z,12.59
2023-05-01T06:20:00.519Z,12.59
2023-05-01T06:21:00.507Z,12.59
2023-05-01T06:22:00.513Z,12.59
2023-05-01T06:23:00.393Z,12.59
2023-05-01T06:24:00.654Z,12.73
2023-05-01T06:25:00.393Z,12.73
2023-05-01T06:26:00.412Z,12.73
2023-05-01T06:27:01.459Z,12.73
2023-05-01T06:28:00.404Z,12.73
2023-05-01T06:29:00.395Z,12.83
2023-05-01T06:30:00.546Z,12.83
2023-05-01T06:31:00.467Z,12.83
2023-05-01T06:32:00.593Z,12.83
2023-05-01T06:33:00.462Z,12.83
2023-05-01T06:34:00.396Z,12.90
2023-05-01T06:35:00.505Z,12.90
2023-05-01T06:36:00.389Z,12.90
2023-05-01T06:37:01.314Z,12.90
2023-05-01T06:38:00.504Z,12.90
2023-05-01T06:39:00.509Z,13.00
2023-05-01T06:40:00.599Z,13.00
2023-05-01T06:41:00.555Z,13.00
2023-05-01T06:42:00.378Z,13.00
2023-05-01T06:43:01.150Z,13.00
2023-05-01T06:44:00.578Z,13.15
2023-05-01T06:45:00.404Z,13.15
2023-05-01T06:46:00.399Z,13.15
2023-05-01T06:47:00.420Z,13.15
2023-05-01T06:48:00.465Z,13.15
2023-05-01T06:49:00.405Z,13.28
2023-05-01T06:50:02.879Z,13.28
2023-05-01T06:51:00.391Z,13.28
2023-05-01T06:52:00.610Z,13.28
2023-05-01T06:53:00.522Z,13.28
2023-05-01T06:54:00.393Z,13.32
2023-05-01T06:55:00.634Z,13.32
2023-05-01T06:56:00.394Z,13.32
2023-05-01T06:57:00.388Z,13.32
2023-05-01T06:58:02.719Z,13.32
2023-05-01T06:59:00.391Z,13.48
2023-05-01T07:00:00.393Z,13.48
2023-05-01T07:01:00.704Z,13.48
2023-05-01T07:02:00.443Z,13.48
2023-05-01T07:03:00.585Z,13.48
2023-05-01T07:04:00.508Z,13.55
2023-05-01T07:05:00.409Z,13.55
2023-05-01T07:06:00.431Z,13.55
2023-05-01T07:07:00.390Z,13.55
2023-05-01T07:08:01.635Z,13.55
2023-05-01T07:09:00.511Z,13.61
2023-05-01T07:10:00.751Z,13.61
2023-05-01T07:11:00.765Z,13.61
2023-05-01T07:12:00.685Z,13.61
2023-05-01T07:13:00.508Z,13.61
2023-05-01T07:14:00.396Z,13.69
2023-05-01T07:15:00.400Z,13.69
2023-05-01T07:16:00.428Z,13.69
2023-05-01T07:17:01.230Z,13.69
2023-05-01T07:18:00.455Z,13.69
2023-05-01T07:19:00.395Z,13.75
2023-05-01T07:20:00.607Z,13.75
2023-05-01T07:21:00.511Z,13.75
2023-05-01T07:22:00.567Z,13.75
2023-05-01T07:23:00.597Z,13.75
2023-05-01T07:24:00.380Z,13.86
2023-05-01T07:25:00.400Z,13.86
2023-05-01T07:26:00.394Z,13.86
2023-05-01T07:27:00.393Z,13.86
2023-05-01T07:28:00.403Z,13.86
2023-05-01T07:29:00.397Z,13.94
2023-05-01T07:30:00.396Z,13.94
2023-05-01T07:31:00.389Z,13.94
2023-05-01T07:32:00.450Z,13.94
2023-05-01T07:33:00.665Z,13.94
2023-05-01T07:34:00.684Z,13.02
2023-05-01T07:35:00.407Z,13.02
2023-05-01T07:36:00.411Z,13.02
2023-05-01T07:37:00.561Z,13.02
2023-05-01T07:38:00.523Z,13.02
2023-05-01T07:39:00.396Z,12.93
2023-05-01T07:40:00.407Z,12.93
2023-05-01T07:41:00.403Z,12.93
2023-05-01T07:42:00.402Z,12.93
2023-05-01T07:43:00.549Z,12.93
2023-05-01T07:44:00.528Z,13.08
2023-05-01T07:45:00.509Z,13.08
2023-05-01T07:46:00.765Z,13.08
2023-05-01T07:47:02.359Z,13.08
2023-05-01T07:48:00.409Z,13.08
2023-05-01T07:49:00.511Z,13.17
2023-05-01T07:50:00.411Z,13.17
2023-05-01T07:51:01.129Z,13.17
2023-05-01T07:52:00.513Z,13.17
2023-05-01T07:53:00.522Z,13.17
2023-05-01T07:54:00.578Z,13.20
2023-05-01T07:55:00.517Z,13.20
2023-05-01T07:56:08.084Z,13.20
2023-05-01T07:57:00.402Z,13.20
2023-05-01T07:58:00.418Z,13.20
2023-05-01T07:59:00.524Z,13.27
2023-05-01T08:00:00.616Z,13.27
2023-05-01T08:01:00.661Z,13.27
2023-05-01T08:02:00.569Z,13.27
2023-05-01T08:03:00.861Z,13.27
2023-05-01T08:04:00.523Z,13.33
2023-05-01T08:05:00.876Z,13.33
2023-05-01T08:06:00.604Z,13.33
2023-05-01T08:07:00.504Z,13.33
2023-05-01T08:08:00.544Z,13.33
2023-05-01T08:09:00.512Z,13.35
2023-05-01T08:10:01.139Z,13.35
2023-05-01T08:11:00.507Z,13.35
2023-05-01T08:12:00.566Z,13.35
2023-05-01T08:13:00.767Z,13.35
2023-05-01T08:14:00.504Z,13.44
2023-05-01T08:15:00.606Z,13.44
2023-05-01T08:16:01.112Z,13.44
2023-05-01T08:17:00.513Z,13.44
2023-05-01T08:18:00.861Z,13.44
2023-05-01T08:19:00.607Z,13.56
2023-05-01T08:20:00.618Z,13.56
2023-05-01T08:21:00.811Z,13.56
2023-05-01T08:22:00.578Z,13.56
2023-05-01T08:23:00.744Z,13.56
2023-05-01T08:24:00.521Z,13.58
2023-05-01T08:25:00.760Z,13.58
2023-05-01T08:26:00.526Z,13.58
2023-05-01T08:27:00.569Z,13.58
2023-05-01T08:28:00.511Z,13.58
2023-05-01T08:29:00.768Z,13.60
2023-05-01T08:30:00.570Z,13.60
2023-05-01T08:31:00.609Z,13.60
2023-05-01T08:32:00.776Z,13.60
2023-05-01T08:33:00.820Z,13.60
2023-05-01T08:34:00.517Z,13.74
2023-05-01T08:35:00.552Z,13.74
2023-05-01T08:36:00.587Z,13.74
2023-05-01T08:37:00.594Z,13.74
2023-05-01T08:38:00.594Z,13.74
2023-05-01T08:39:00.654Z,13.85
2023-05-01T08:40:00.564Z,13.85
2023-05-01T08:41:00.733Z,13.85
2023-05-01T08:42:01.664Z,13.85
2023-05-01T08:43:00.594Z,13.85
2023-05-01T08:44:01.389Z,14.15
2023-05-01T08:45:01.918Z,14.15
2023-05-01T08:46:00.921Z,14.15
2023-05-01T08:47:10.572Z,14.15
2023-05-01T08:48:03.722Z,14.15
2023-05-01T08:49:01.510Z,14.34
2023-05-01T08:50:00.648Z,14.34
2023-05-01T08:51:01.770Z,14.34
2023-05-01T08:52:01.223Z,14.34
2023-05-01T08:53:01.111Z,14.34
2023-05-01T08:54:00.676Z,14.51
2023-05-01T08:55:01.158Z,14.51
2023-05-01T08:56:04.869Z,14.51
2023-05-01T08:57:00.786Z,14.51
2023-05-01T08:58:00.914Z,14.51
2023-05-01T08:59:02.679Z,14.72
2023-05-01T09:00:00.596Z,14.72
2023-05-01T09:01:01.480Z,14.72
2023-05-01T09:02:00.989Z,14.72
2023-05-01T09:03:00.681Z,14.72
2023-05-01T09:04:01.516Z,14.84
2023-05-01T09:05:01.184Z,14.84
2023-05-01T09:06:01.576Z,14.84
2023-05-01T09:07:00.666Z,14.84
2023-05-01T09:08:00.612Z,14.84
2023-05-01T09:09:00.599Z,14.96
2023-05-01T09:10:00.617Z,14.96
2023-05-01T09:11:01.554Z,14.96
2023-05-01T09:12:07.675Z,14.96
2023-05-01T09:13:00.951Z,14.96
2023-05-01T09:14:00.721Z,15.01
2023-05-01T09:15:01.268Z,15.01
2023-05-01T09:16:00.645Z,15.01
2023-05-01T09:17:00.582Z,15.01
2023-05-01T09:18:03.254Z,15.01
2023-05-01T09:19:00.598Z,15.29
2023-05-01T09:20:00.872Z,15.29
2023-05-01T09:21:01.171Z,15.29
2023-05-01T09:22:00.598Z,15.29
2023-05-01T09:23:00.515Z,15.29
2023-05-01T09:24:00.512Z,15.48
2023-05-01T09:25:00.598Z,15.48
2023-05-01T09:26:03.481Z,15.48
2023-05-01T09:27:00.506Z,15.48
2023-05-01T09:28:03.149Z,15.48
2023-05-01T09:29:00.582Z,15.68
2023-05-01T09:30:00.561Z,15.68
2023-05-01T09:31:10.314Z,15.68
2023-05-01T09:32:10.362Z,15.68
2023-05-01T09:33:10.380Z,15.68
2023-05-01T09:34:01.672Z,15.84
2023-05-01T09:35:09.034Z,15.84
2023-05-01T09:36:00.557Z,15.84
2023-05-01T09:37:00.404Z,15.84
2023-05-01T09:38:00.644Z,15.84
2023-05-01T09:39:00.787Z,16.05
2023-05-01T09:40:03.815Z,16.05
2023-05-01T09:41:04.129Z,16.05
2023-05-01T09:42:00.549Z,16.05
2023-05-01T09:43:00.552Z,16.05
2023-05-01T09:44:00.586Z,16.13
2023-05-01T09:45:01.854Z,16.13
2023-05-01T09:46:00.642Z,16.13
2023-05-01T09:47:00.723Z,16.13
2023-05-01T09:48:08.394Z,16.13
2023-05-01T09:49:01.012Z,16.22
2023-05-01T09:50:00.596Z,16.22
2023-05-01T09:51:00.983Z,16.22
2023-05-01T09:52:10.304Z,16.22
2023-05-01T09:53:00.919Z,16.22
2023-05-01T09:54:01.302Z,16.10
2023-05-01T09:55:10.309Z,16.10
2023-05-01T09:56:00.621Z,16.10
2023-05-01T09:57:00.698Z,16.10
2023-05-01T09:58:00.891Z,16.10
2023-05-01T09:59:10.338Z,16.02
2023-05-01T10:00:01.060Z,16.02
2023-05-01T10:01:00.587Z,16.02
2023-05-01T10:02:00.692Z,16.02
2023-05-01T10:03:10.416Z,16.02
2023-05-01T10:04:00.666Z,16.10
2023-05-01T10:05:00.653Z,16.10
2023-05-01T10:06:00.653Z,16.10
2023-05-01T10:07:10.348Z,16.10
2023-05-01T10:08:01.460Z,16.10
2023-05-01T10:09:00.572Z,16.12
2023-05-01T10:10:10.338Z,16.12
2023-05-01T10:11:02.144Z,16.12
2023-05-01T10:12:00.575Z,16.12
2023-05-01T10:13:10.299Z,16.12
2023-05-01T10:14:08.687Z,16.14
2023-05-01T10:15:03.572Z,16.14
2023-05-01T10:16:00.492Z,16.14
2023-05-01T10:17:06.295Z,16.14
2023-05-01T10:18:00.714Z,16.14
2023-05-01T10:19:02.271Z,16.43
2023-05-01T10:20:00.691Z,16.43
2023-05-01T10:21:00.659Z,16.43
2023-05-01T10:22:00.409Z,16.43
2023-05-01T10:23:01.109Z,16.43
2023-05-01T10:24:01.117Z,16.49
2023-05-01T10:25:00.829Z,16.49
2023-05-01T10:26:02.513Z,16.49
2023-05-01T10:27:00.664Z,16.49
2023-05-01T10:28:02.158Z,16.49
2023-05-01T10:29:00.802Z,16.37
2023-05-01T10:30:01.703Z,16.37
2023-05-01T10:31:01.735Z,16.37
2023-05-01T10:32:01.822Z,16.37
2023-05-01T10:33:01.171Z,16.37
2023-05-01T10:34:00.831Z,16.11
2023-05-01T10:35:03.064Z,16.11
2023-05-01T10:36:01.580Z,16.11
2023-05-01T10:37:03.198Z,16.11
2023-05-01T10:38:01.495Z,16.11
2023-05-01T10:39:00.716Z,16.00
2023-05-01T10:40:10.302Z,16.00
2023-05-01T10:41:00.503Z,16.00
2023-05-01T10:42:01.076Z,16.00
2023-05-01T10:43:10.328Z,16.00
2023-05-01T10:44:10.299Z,16.00
2023-05-01T10:45:10.296Z,16.00
2023-05-01T10:46:07.837Z,16.00
2023-05-01T10:47:10.291Z,16.00
2023-05-01T10:48:00.863Z,16.00
2023-05-01T10:49:00.498Z,16.15
2023-05-01T10:50:04.644Z,16.15
2023-05-01T10:51:10.314Z,16.15
2023-05-01T10:52:00.579Z,16.15
2023-05-01T10:53:10.302Z,16.15
2023-05-01T10:54:10.296Z,16.35
2023-05-01T10:55:10.325Z,16.35
2023-05-01T10:56:00.510Z,16.35
2023-05-01T10:57:01.037Z,16.35
2023-05-01T10:58:00.597Z,16.35
2023-05-01T10:59:01.547Z,16.50
2023-05-01T11:00:00.360Z,16.50
2023-05-01T11:01:10.293Z,16.50
2023-05-01T11:02:10.387Z,16.50
2023-05-01T11:03:10.362Z,16.50
2023-05-01T11:04:02.280Z,16.83
2023-05-01T11:05:00.840Z,16.83
2023-05-01T11:06:00.946Z,16.83
2023-05-01T11:07:00.409Z,16.83
2023-05-01T11:08:10.306Z,16.83
2023-05-01T11:09:00.595Z,16.81
2023-05-01T11:10:00.388Z,16.81
2023-05-01T11:11:10.307Z,16.81
2023-05-01T11:12:00.391Z,16.81
2023-05-01T11:13:00.496Z,16.81
2023-05-01T11:14:01.615Z,16.98
2023-05-01T11:15:00.992Z,16.98
2023-05-01T11:16:10.340Z,16.98
2023-05-01T11:17:00.390Z,16.98
2023-05-01T11:18:01.024Z,16.98
2023-05-01T11:19:00.388Z,16.97
2023-05-01T11:20:00.402Z,16.97
2023-05-01T11:21:00.585Z,16.97
2023-05-01T11:22:00.637Z,16.97
2023-05-01T11:23:00.391Z,16.97
2023-05-01T11:24:01.057Z,16.98
2023-05-01T11:25:01.088Z,16.98
2023-05-01T11:26:00.817Z,16.98
2023-05-01T11:27:00.682Z,16.98
2023-05-01T11:28:01.194Z,16.98
2023-05-01T11:29:00.642Z,16.97
2023-05-01T11:30:00.539Z,16.97
2023-05-01T11:31:00.585Z,16.97
2023-05-01T11:32:00.466Z,16.97
2023-05-01T11:33:00.628Z,16.97
2023-05-01T11:34:00.546Z,17.07
2023-05-01T11:35:00.674Z,17.07
2023-05-01T11:36:00.991Z,17.07
2023-05-01T11:37:00.392Z,17.07
2023-05-01T11:38:00.508Z,17.07
2023-05-01T11:39:00.388Z,17.21
2023-05-01T11:40:00.542Z,17.21
2023-05-01T11:41:01.534Z,17.21
2023-05-01T11:42:08.415Z,17.21
2023-05-01T11:43:02.597Z,17.21
2023-05-01T11:44:00.638Z,17.38
2023-05-01T11:45:08.186Z,17.38
2023-05-01T11:46:00.436Z,17.38
2023-05-01T11:47:00.396Z,17.38
2023-05-01T11:48:03.652Z,17.38
2023-05-01T11:49:01.302Z,17.50
2023-05-01T11:50:00.634Z,17.50
2023-05-01T11:51:00.390Z,17.50
2023-05-01T11:52:00.375Z,17.50
2023-05-01T11:53:01.235Z,17.50
2023-05-01T11:54:04.812Z,17.78
2023-05-01T11:55:00.748Z,17.78
2023-05-01T11:56:00.513Z,17.78
2023-05-01T11:57:00.540Z,17.78
2023-05-01T11:58:00.778Z,17.78
2023-05-01T11:59:10.316Z,17.71
2023-05-01T12:00:00.552Z,17.71
2023-05-01T12:01:00.400Z,17.71
2023-05-01T12:02:00.935Z,17.71
2023-05-01T12:03:01.526Z,17.71
2023-05-01T12:04:01.034Z,17.86
2023-05-01T12:05:10.373Z,17.86
2023-05-01T12:06:00.641Z,17.86
2023-05-01T12:07:00.556Z,17.86
2023-05-01T12:08:10.411Z,17.86
2023-05-01T12:09:00.590Z,17.87
2023-05-01T12:10:00.750Z,17.87
2023-05-01T12:11:00.590Z,17.87
2023-05-01T12:12:00.681Z,17.87
2023-05-01T12:13:02.362Z,17.87
2023-05-01T12:14:00.689Z,17.87
2023-05-01T12:15:00.909Z,17.87
2023-05-01T12:16:00.717Z,17.87
2023-05-01T12:17:00.687Z,17.87
2023-05-01T12:18:01.391Z,17.87
2023-05-01T12:19:00.627Z,17.77
2023-05-01T12:20:00.601Z,17.77
2023-05-01T12:21:00.606Z,17.77
2023-05-01T12:22:04.064Z,17.77
2023-05-01T12:23:01.572Z,17.77
2023-05-01T12:24:08.882Z,17.58
2023-05-01T12:25:00.818Z,17.58
2023-05-01T12:26:00.674Z,17.58
2023-05-01T12:27:00.650Z,17.58
2023-05-01T12:28:01.761Z,17.58
2023-05-01T12:29:01.544Z,17.67
2023-05-01T12:30:00.597Z,17.67
2023-05-01T12:31:04.218Z,17.67
2023-05-01T12:32:00.595Z,17.67
2023-05-01T12:33:06.475Z,17.67
2023-05-01T12:34:01.366Z,17.52
2023-05-01T12:35:10.301Z,17.52
2023-05-01T12:36:08.375Z,17.52
2023-05-01T12:37:00.591Z,17.52
2023-05-01T12:38:08.425Z,17.52
2023-05-01T12:39:08.782Z,17.42
2023-05-01T12:40:00.559Z,17.42
2023-05-01T12:41:00.646Z,17.42
2023-05-01T12:42:00.586Z,17.42
2023-05-01T12:43:00.583Z,17.42
2023-05-01T12:44:00.578Z,17.27
2023-05-01T12:45:01.073Z,17.27
2023-05-01T12:46:00.926Z,17.27
2023-05-01T12:47:01.758Z,17.27
2023-05-01T12:48:00.615Z,17.27
2023-05-01T12:49:00.597Z,17.08
2023-05-01T12:50:01.831Z,17.08
2023-05-01T12:51:00.494Z,17.08
2023-05-01T12:52:00.850Z,17.08